createdAt,value
2022-10-10T00:04:44.294Z,32.4
2022-10-10T00:09:44.520Z,32.4
2022-10-10T00:14:44.728Z,32.4
2022-10-10T00:19:44.923Z,32.4
2022-10-10T00:24:45.111Z,32.4
2022-10-10T00:29:45.270Z,32.3
2022-10-10T00:34:45.481Z,32.3
2022-10-10T00:39:45.697Z,32.3
2022-10-10T00:44:45.871Z,32.3
2022-10-10T00:49:46.312Z,32.2
2022-10-10T00:54:46.510Z,32.2
2022-10-10T00:59:46.715Z,32.2
2022-10-10T01:04:46.933Z,32.2
2022-10-10T01:09:47.116Z,32.2
2022-10-10T01:14:47.302Z,32.2
2022-10-10T01:19:47.520Z,32.2
2022-10-10T01:24:47.697Z,32.2
2022-10-10T01:29:47.877Z,32.2
2022-10-10T01:34:48.113Z,32.1
2022-10-10T01:39:48.319Z,32.1
2022-10-10T01:44:48.480Z,32.1
2022-10-10T01:49:48.693Z,32.1
2022-10-10T01:54:48.887Z,32.1
2022-10-10T01:59:49.085Z,32.1
2022-10-10T02:04:49.285Z,32.1
2022-10-10T02:09:49.459Z,32
2022-10-10T02:14:49.684Z,32
2022-10-10T02:19:49.863Z,32
2022-10-10T02:24:50.035Z,32
2022-10-10T02:29:50.225Z,31.9
2022-10-10T02:34:52.200Z,31.9
2022-10-10T02:39:54.095Z,31.9
2022-10-10T02:44:55.913Z,31.9
2022-10-10T02:49:57.760Z,31.9
2022-10-10T02:54:59.563Z,31.9
2022-10-10T03:00:01.367Z,31.9
2022-10-10T03:05:05.613Z,31.9
2022-10-10T03:10:07.601Z,31.8
2022-10-10T03:15:11.802Z,31.8
2022-10-10T03:20:13.942Z,31.8
2022-10-10T03:25:15.743Z,31.8
2022-10-10T03:30:17.535Z,31.8
2022-10-10T03:35:19.377Z,31.8
2022-10-10T03:40:21.193Z,31.8
2022-10-10T03:45:23.007Z,31.8
2022-10-10T03:50:24.844Z,31.8
2022-10-10T03:55:26.908Z,31.7
2022-10-10T04:00:28.695Z,31.7
2022-10-10T04:05:30.515Z,31.7
2022-10-10T04:10:32.343Z,31.7
2022-10-10T04:15:34.164Z,31.7
2022-10-10T04:20:36.001Z,31.6
2022-10-10T04:25:37.813Z,31.6
2022-10-10T04:30:39.625Z,31.6
2022-10-10T04:35:41.450Z,31.6
2022-10-10T04:40:43.241Z,31.6
2022-10-10T04:45:45.057Z,31.6
2022-10-10T04:50:46.926Z,31.6
2022-10-10T04:55:48.758Z,31.6
2022-10-10T05:00:50.536Z,31.5
2022-10-10T05:05:52.370Z,31.5
2022-10-10T05:10:54.205Z,31.5
2022-10-10T05:15:56.280Z,31.5
2022-10-10T05:21:02.650Z,31.4
2022-10-10T05:26:05.317Z,31.4
2022-10-10T05:31:07.118Z,31.4
2022-10-10T05:36:08.962Z,31.4
2022-10-10T05:41:10.761Z,31.4
2022-10-10T05:46:12.584Z,31.4
2022-10-10T05:51:14.460Z,31.4
2022-10-10T05:56:16.277Z,31.4
2022-10-10T06:01:18.109Z,31.4
2022-10-10T06:06:20.190Z,31.4
2022-10-10T06:11:22.208Z,31.3
2022-10-10T06:16:24.015Z,31.3
2022-10-10T06:21:25.905Z,31.3
2022-10-10T06:26:27.740Z,31.3
2022-10-10T06:31:29.557Z,31.3
2022-10-10T06:36:31.370Z,31.2
2022-10-10T06:41:33.162Z,31.2
2022-10-10T06:46:34.964Z,31.2
2022-10-10T06:51:36.003Z,31.2
2022-10-10T06:56:37.811Z,31.2
2022-10-10T07:01:39.631Z,31.2
2022-10-10T07:06:41.474Z,31.2
2022-10-10T07:11:43.300Z,31.2
2022-10-10T07:16:45.128Z,31.1
2022-10-10T07:21:46.934Z,31.1
2022-10-10T07:26:48.700Z,31.1
2022-10-10T07:31:50.523Z,31.1
2022-10-10T07:36:51.557Z,31.1
2022-10-10T07:41:53.354Z,31.1
2022-10-10T07:46:55.154Z,31.1
2022-10-10T07:51:58.771Z,31.1
2022-10-10T07:57:02.450Z,31.1
2022-10-10T08:02:04.509Z,31.1
2022-10-10T08:07:06.352Z,31.1
2022-10-10T08:12:08.144Z,31.1
2022-10-10T08:17:09.961Z,31
2022-10-10T08:22:11.793Z,31
2022-10-10T08:27:13.823Z,31
2022-10-10T08:32:15.688Z,31
2022-10-10T08:37:17.553Z,30.9
2022-10-10T08:42:18.439Z,30.9
2022-10-10T08:47:18.650Z,30.9
2022-10-10T08:52:18.825Z,30.9
2022-10-10T08:57:19.032Z,30.9
2022-10-10T09:02:23.641Z,30.9
2022-10-10T09:07:26.298Z,30.9
2022-10-10T09:12:26.480Z,30.9
2022-10-10T09:17:26.704Z,30.9
2022-10-10T09:22:27.163Z,30.9
2022-10-10T09:27:27.370Z,30.9
2022-10-10T09:32:27.555Z,30.8
2022-10-10T09:37:45.579Z,30.8
2022-10-10T09:42:46.026Z,30.8
2022-10-10T09:47:46.222Z,30.8
2022-10-10T09:52:46.393Z,30.8
2022-10-10T09:57:46.576Z,30.8
2022-10-10T10:02:46.758Z,30.8
2022-10-10T10:07:46.976Z,30.8
2022-10-10T10:12:47.161Z,30.8
2022-10-10T10:17:47.386Z,30.8
2022-10-10T10:22:49.257Z,30.7
2022-10-10T10:27:51.108Z,30.7
2022-10-10T10:32:51.267Z,30.7
2022-10-10T10:37:51.422Z,30.7
2022-10-10T10:42:53.230Z,30.7
2022-10-10T10:47:54.310Z,30.6
2022-10-10T10:52:56.127Z,30.6
2022-10-10T10:58:10.712Z,30.6
2022-10-10T11:05:15.655Z,30.6
2022-10-10T11:10:21.640Z,30.6
2022-10-10T11:15:21.801Z,30.6
2022-10-10T11:20:22.021Z,30.6
2022-10-10T11:25:22.173Z,30.6
2022-10-10T11:30:24.214Z,30.6
2022-10-10T11:35:26.070Z,30.6
2022-10-10T11:40:27.881Z,30.5
2022-10-10T11:45:28.262Z,30.5
2022-10-10T11:50:30.120Z,30.5
2022-10-10T11:55:31.949Z,30.5
2022-10-10T12:00:32.120Z,30.5
2022-10-10T12:05:34.002Z,30.4
2022-10-10T12:10:35.843Z,30.4
2022-10-10T12:15:41.849Z,30.4
2022-10-10T12:20:42.942Z,30.3
2022-10-10T12:25:44.782Z,30.2
2022-10-10T12:30:46.599Z,30.2
2022-10-10T12:35:48.415Z,30.1
2022-10-10T12:40:50.219Z,30.1
2022-10-10T12:50:58.194Z,30.1
2022-10-10T12:56:00.015Z,30.1
2022-10-10T13:01:02.216Z,30
2022-10-10T13:06:04.361Z,30
2022-10-10T13:11:06.531Z,30
2022-10-10T13:16:06.742Z,30
2022-10-10T13:21:06.927Z,30
2022-10-10T13:26:08.780Z,29.9
2022-10-10T13:31:10.615Z,29.9
2022-10-10T13:36:12.414Z,29.9
2022-10-10T13:41:14.249Z,29.9
2022-10-10T13:46:16.046Z,29.9
2022-10-10T13:51:18.126Z,29.9
2022-10-10T13:56:19.951Z,29.9
2022-10-10T14:01:21.791Z,29.8
2022-10-10T14:06:23.652Z,29.8
2022-10-10T14:11:25.485Z,29.8
2022-10-10T14:16:27.310Z,29.8
2022-10-10T14:21:29.116Z,29.8
2022-10-10T14:26:30.919Z,29.8
2022-10-10T14:31:32.706Z,29.8
2022-10-10T14:36:33.731Z,29.8
2022-10-10T14:41:35.521Z,29.8
2022-10-10T14:46:37.338Z,29.8
2022-10-10T14:51:39.195Z,29.8
2022-10-10T14:57:06.653Z,29.8
2022-10-10T15:02:10.938Z,29.8
2022-10-10T15:07:14.154Z,29.8
2022-10-10T15:12:16.268Z,29.7
2022-10-10T15:17:18.056Z,29.6
2022-10-10T15:22:20.119Z,29.4
2022-10-10T15:27:21.924Z,29.4
2022-10-10T15:32:23.936Z,29.4
2022-10-10T15:37:25.762Z,29.4
2022-10-10T15:42:27.573Z,29.4
2022-10-10T15:47:29.358Z,32
2022-10-10T15:52:29.737Z,34.9
2022-10-10T15:57:30.062Z,36.5
2022-10-10T16:02:31.519Z,38
2022-10-10T16:07:36.582Z,39.3
2022-10-10T16:12:41.485Z,40.6
2022-10-10T16:17:42.134Z,41.7
2022-10-10T16:22:42.646Z,42.6
2022-10-10T16:27:43.198Z,43.5
2022-10-10T16:32:43.751Z,44.2
2022-10-10T16:37:44.329Z,44.7
2022-10-10T16:42:44.921Z,44.3
2022-10-10T16:47:45.472Z,44
2022-10-10T16:52:46.049Z,43.9
2022-10-10T16:57:46.650Z,43.9
2022-10-10T17:02:47.175Z,43.9
2022-10-10T17:07:47.736Z,43.8
2022-10-10T17:12:48.265Z,43.7
2022-10-10T17:17:48.820Z,43.7
2022-10-10T17:22:49.373Z,43.7
2022-10-10T17:27:49.928Z,43.6
2022-10-10T17:32:50.440Z,43.6
2022-10-10T17:37:51.016Z,43.6
2022-10-10T17:42:51.532Z,43.5
2022-10-10T17:47:52.070Z,43.5
2022-10-10T17:52:52.585Z,43.4
2022-10-10T17:57:53.116Z,43.4
2022-10-10T18:02:53.853Z,43.3
2022-10-10T18:07:54.358Z,43.3
2022-10-10T18:12:54.871Z,43.3
2022-10-10T18:17:55.489Z,43.2
2022-10-10T18:22:56.040Z,43.1
2022-10-10T18:27:56.521Z,43.1
2022-10-10T18:32:57.053Z,43.1
2022-10-10T18:37:57.577Z,43
2022-10-10T18:42:58.085Z,42.9
2022-10-10T18:47:58.624Z,42.9
2022-10-10T18:52:59.178Z,42.8
2022-10-10T18:57:59.679Z,42.7
2022-10-10T19:03:00.204Z,42.7
2022-10-10T19:08:00.924Z,42.6
2022-10-10T19:13:01.480Z,42.6
2022-10-10T19:18:02.259Z,42.6
2022-10-10T19:23:02.765Z,42.5
2022-10-10T19:28:03.282Z,42.4
2022-10-10T19:33:03.796Z,42.4
2022-10-10T19:38:04.536Z,42.2
2022-10-10T19:43:05.260Z,42.2
2022-10-10T19:48:05.732Z,42.1
2022-10-10T19:53:06.238Z,41.9
2022-10-10T19:58:06.665Z,41.6
2022-10-10T20:03:07.976Z,41.4
2022-10-10T20:08:08.483Z,41.4
2022-10-10T20:13:08.885Z,41.3
2022-10-10T20:18:09.308Z,41.2
2022-10-10T20:23:09.724Z,41.2
2022-10-10T20:28:10.260Z,41.1
2022-10-10T20:33:10.747Z,41.1
2022-10-10T20:38:11.163Z,41
2022-10-10T20:43:11.605Z,40.9
2022-10-10T20:48:12.086Z,40.9
2022-10-10T20:53:12.579Z,40.8
2022-10-10T20:58:13.070Z,40.8
2022-10-10T21:03:13.528Z,40.7
2022-10-10T21:08:14.221Z,40.6
2022-10-10T21:13:14.658Z,40.6
2022-10-10T21:18:15.134Z,40.5
2022-10-10T21:23:15.577Z,40.5
2022-10-10T21:28:16.072Z,40.4
2022-10-10T21:33:16.617Z,40.4
2022-10-10T21:38:17.060Z,40.3
2022-10-10T21:43:17.494Z,40.2
2022-10-10T21:48:18.752Z,40.2
2022-10-10T21:53:19.168Z,40.1
2022-10-10T21:58:19.622Z,40.1
2022-10-10T22:03:20.921Z,40
2022-10-10T22:08:21.555Z,39.9
2022-10-10T22:13:21.989Z,39.9
2022-10-10T22:18:22.547Z,39.9
2022-10-10T22:23:22.954Z,39.8
2022-10-10T22:28:23.408Z,39.7
2022-10-10T22:33:23.975Z,39.7
2022-10-10T22:38:24.378Z,39.6
2022-10-10T22:43:26.904Z,39.6
2022-10-10T22:48:27.591Z,39.5
2022-10-10T22:53:27.994Z,39.5
2022-10-10T22:58:28.665Z,39.4
2022-10-10T23:03:29.069Z,39.4
2022-10-10T23:08:29.497Z,39.4
2022-10-10T23:13:29.916Z,39.3
2022-10-10T23:18:30.335Z,39.2
2022-10-10T23:23:30.713Z,39.2
2022-10-10T23:28:31.171Z,39.1
2022-10-10T23:33:35.926Z,39.1
2022-10-10T23:38:37.121Z,39.1
2022-10-10T23:43:37.547Z,39
2022-10-10T23:48:37.939Z,38.9
2022-10-10T23:53:38.373Z,38.9
2022-10-10T23:58:38.758Z,38.9
